FDX86 TNCM-GOBD
Flight info
| Callsign | FDX86 |
|---|---|
| Flight time | 5h 18m |
| Altitude | 35000 |
| Route | MODOR2 ELOPO DCT OTUSU DCT ELJEZ/M084F350 DCT 2150N DCT 2340N DCT 22N036W DCT ERNEK/N0495F350 DCT EVKAS DCT BVT DCT MOGSA DCT PIVSA PIVSA1D |
| Aircraft | B77L/H-SDE1E2E3FGHIJ2J3J4J5M1RWXY/LB1D1 |
Departure
| Time | 2026-04-25 17:02 |
|---|---|
| Airport | Princess Juliana International Airport (TNCM) |
Arrival
| Time | 2026-04-25 22:21 |
|---|---|
| Airport | Blaise Diagne International Airport (GOBD) |
| Time | Latitude | Longitude | Altitude | Speed | Heading |
|---|---|---|---|---|---|
| 2026-04-25 16:30 | 18.04305 | -63.11499 | 33 ft | 0 kts | 348° |
| 2026-04-25 16:49 | 18.04291 | -63.11496 | 32 ft | 4 kts | 351° |
| 2026-04-25 16:49 | 18.04264 | -63.11493 | 30 ft | 4 kts | 358° |
| 2026-04-25 16:49 | 18.04237 | -63.11493 | 30 ft | 4 kts | 7° |
| 2026-04-25 16:49 | 18.04211 | -63.11499 | 31 ft | 4 kts | 26° |
| 2026-04-25 16:50 | 18.04196 | -63.11508 | 31 ft | 3 kts | 48° |
| 2026-04-25 16:50 | 18.04194 | -63.11511 | 32 ft | 0 kts | 51° |
| 2026-04-25 16:54 | 18.04219 | -63.11469 | 33 ft | 17 kts | 66° |
| 2026-04-25 16:54 | 18.04237 | -63.11343 | 33 ft | 17 kts | 106° |
| 2026-04-25 16:54 | 18.04144 | -63.11298 | 32 ft | 2 kts | 176° |
| 2026-04-25 16:54 | 18.04141 | -63.11297 | 32 ft | 0 kts | 175° |
| 2026-04-25 16:59 | 18.04122 | -63.11296 | 32 ft | 12 kts | 175° |
| 2026-04-25 17:00 | 18.04026 | -63.11363 | 32 ft | 21 kts | 257° |
| 2026-04-25 17:00 | 18.04001 | -63.11514 | 32 ft | 21 kts | 261° |
| 2026-04-25 17:00 | 18.03976 | -63.11695 | 32 ft | 27 kts | 262° |
| 2026-04-25 17:00 | 18.03978 | -63.11883 | 32 ft | 22 kts | 288° |
| 2026-04-25 17:01 | 18.03962 | -63.11964 | 32 ft | 12 kts | 176° |
| 2026-04-25 17:01 | 18.03945 | -63.11936 | 32 ft | 0 kts | 85° |
| 2026-04-25 17:01 | 18.03984 | -63.11651 | 32 ft | 84 kts | 81° |
| 2026-04-25 17:02 | 18.04111 | -63.10758 | 32 ft | 165 kts | 81° |
| 2026-04-25 17:02 | 18.04282 | -63.09368 | 295 ft | 202 kts | 94° |
| 2026-04-25 17:02 | 18.03796 | -63.07986 | 791 ft | 211 kts | 135° |
| 2026-04-25 17:02 | 18.02991 | -63.07385 | 1296 ft | 212 kts | 158° |
| 2026-04-25 17:03 | 18.01107 | -63.06753 | 2008 ft | 227 kts | 165° |
| 2026-04-25 17:03 | 17.99534 | -63.06296 | 2460 ft | 240 kts | 165° |
| 2026-04-25 17:03 | 17.97892 | -63.05822 | 3052 ft | 248 kts | 164° |
| 2026-04-25 17:03 | 17.96371 | -63.04948 | 3569 ft | 258 kts | 134° |
| 2026-04-25 17:04 | 17.95397 | -63.03349 | 4192 ft | 264 kts | 120° |
| 2026-04-25 17:04 | 17.94502 | -63.01635 | 4852 ft | 269 kts | 122° |
| 2026-04-25 17:04 | 17.93550 | -62.99931 | 5593 ft | 271 kts | 124° |
| 2026-04-25 17:04 | 17.92558 | -62.98232 | 6320 ft | 275 kts | 125° |
| 2026-04-25 17:05 | 17.91529 | -62.96525 | 6976 ft | 279 kts | 126° |
| 2026-04-25 17:05 | 17.89382 | -62.93075 | 8279 ft | 286 kts | 126° |
| 2026-04-25 17:05 | 17.88273 | -62.91327 | 8936 ft | 290 kts | 126° |
| 2026-04-25 17:06 | 17.87143 | -62.89559 | 9584 ft | 294 kts | 126° |
| 2026-04-25 17:06 | 17.85992 | -62.87768 | 10192 ft | 298 kts | 126° |
| 2026-04-25 17:06 | 17.84802 | -62.85924 | 10467 ft | 315 kts | 126° |
| 2026-04-25 17:06 | 17.83527 | -62.83955 | 10617 ft | 337 kts | 126° |
| 2026-04-25 17:07 | 17.82167 | -62.81857 | 10788 ft | 358 kts | 126° |
| 2026-04-25 17:07 | 17.80728 | -62.79638 | 11009 ft | 376 kts | 126° |
| 2026-04-25 17:07 | 17.79234 | -62.77330 | 11457 ft | 387 kts | 126° |
| 2026-04-25 17:07 | 17.77709 | -62.74975 | 12004 ft | 394 kts | 126° |
| 2026-04-25 17:08 | 17.76161 | -62.72585 | 12645 ft | 398 kts | 126° |
| 2026-04-25 17:08 | 17.74598 | -62.70175 | 13284 ft | 402 kts | 126° |
| 2026-04-25 17:08 | 17.73018 | -62.67740 | 13887 ft | 406 kts | 126° |
| 2026-04-25 17:08 | 17.71420 | -62.65280 | 14449 ft | 409 kts | 126° |
| 2026-04-25 17:09 | 17.69812 | -62.62803 | 15005 ft | 412 kts | 126° |
| 2026-04-25 17:09 | 17.68192 | -62.60311 | 15576 ft | 415 kts | 126° |
| 2026-04-25 17:09 | 17.67118 | -62.58648 | 15932 ft | 415 kts | 125° |
| 2026-04-25 17:09 | 17.65476 | -62.54928 | 16494 ft | 428 kts | 107° |
| 2026-04-25 17:10 | 17.64953 | -62.51885 | 17014 ft | 433 kts | 95° |
| 2026-04-25 17:10 | 17.64937 | -62.48723 | 17501 ft | 436 kts | 90° |
| 2026-04-25 17:10 | 17.65000 | -62.45524 | 17966 ft | 441 kts | 90° |
| 2026-04-25 17:10 | 17.65066 | -62.42298 | 18449 ft | 444 kts | 90° |
| 2026-04-25 17:11 | 17.65128 | -62.39049 | 18905 ft | 447 kts | 90° |
| 2026-04-25 17:11 | 17.65166 | -62.36846 | 19205 ft | 449 kts | 91° |
| 2026-04-25 17:11 | 17.65214 | -62.33561 | 19626 ft | 453 kts | 91° |
| 2026-04-25 17:11 | 17.65255 | -62.30249 | 20049 ft | 456 kts | 91° |
| 2026-04-25 17:12 | 17.65290 | -62.26948 | 20452 ft | 460 kts | 91° |
| 2026-04-25 17:12 | 17.65323 | -62.23585 | 20858 ft | 463 kts | 91° |
| 2026-04-25 17:12 | 17.65355 | -62.20195 | 21276 ft | 467 kts | 91° |
| 2026-04-25 17:12 | 17.65386 | -62.16734 | 21694 ft | 470 kts | 91° |
| 2026-04-25 17:13 | 17.65415 | -62.13342 | 22108 ft | 473 kts | 91° |
| 2026-04-25 17:13 | 17.65436 | -62.11004 | 22366 ft | 476 kts | 91° |
| 2026-04-25 17:13 | 17.65475 | -62.06379 | 22850 ft | 481 kts | 91° |
| 2026-04-25 17:13 | 17.65504 | -62.02859 | 23235 ft | 485 kts | 91° |
| 2026-04-25 17:14 | 17.65534 | -61.99314 | 23615 ft | 488 kts | 91° |
| 2026-04-25 17:14 | 17.65563 | -61.95749 | 23932 ft | 490 kts | 91° |
| 2026-04-25 17:14 | 17.65591 | -61.92165 | 24233 ft | 494 kts | 91° |
| 2026-04-25 17:14 | 17.65619 | -61.88553 | 24530 ft | 497 kts | 92° |
| 2026-04-25 17:15 | 17.65647 | -61.84917 | 24821 ft | 500 kts | 92° |
| 2026-04-25 17:15 | 17.65674 | -61.81259 | 25109 ft | 503 kts | 92° |
| 2026-04-25 17:15 | 17.65700 | -61.77580 | 25395 ft | 507 kts | 92° |
| 2026-04-25 17:15 | 17.65726 | -61.73871 | 25679 ft | 510 kts | 91° |
| 2026-04-25 17:16 | 17.65751 | -61.70146 | 25958 ft | 513 kts | 91° |
| 2026-04-25 17:16 | 17.65776 | -61.66392 | 26241 ft | 516 kts | 91° |
| 2026-04-25 17:16 | 17.65801 | -61.62618 | 26530 ft | 519 kts | 91° |
| 2026-04-25 17:16 | 17.65824 | -61.58823 | 26795 ft | 522 kts | 91° |
| 2026-04-25 17:17 | 17.65848 | -61.55002 | 27062 ft | 526 kts | 91° |
| 2026-04-25 17:17 | 17.65870 | -61.51161 | 27325 ft | 529 kts | 91° |
| 2026-04-25 17:17 | 17.65892 | -61.47294 | 27604 ft | 532 kts | 91° |
| 2026-04-25 17:17 | 17.65913 | -61.43407 | 27866 ft | 535 kts | 91° |
| 2026-04-25 17:18 | 17.65934 | -61.39497 | 28128 ft | 538 kts | 91° |
| 2026-04-25 17:18 | 17.65954 | -61.35565 | 28371 ft | 540 kts | 91° |
| 2026-04-25 17:18 | 17.65973 | -61.31620 | 28635 ft | 543 kts | 91° |
| 2026-04-25 17:18 | 17.65992 | -61.27666 | 29007 ft | 542 kts | 91° |
| 2026-04-25 17:19 | 17.66010 | -61.23713 | 29377 ft | 542 kts | 91° |
| 2026-04-25 17:19 | 17.66027 | -61.19775 | 29746 ft | 542 kts | 91° |
| 2026-04-25 17:19 | 17.66044 | -61.15818 | 30087 ft | 542 kts | 91° |
| 2026-04-25 17:19 | 17.66059 | -61.11866 | 30398 ft | 542 kts | 91° |
| 2026-04-25 17:20 | 17.66074 | -61.07915 | 30779 ft | 540 kts | 92° |
| 2026-04-25 17:20 | 17.66087 | -61.03982 | 31011 ft | 541 kts | 92° |
| 2026-04-25 17:20 | 17.66113 | -60.96123 | 30984 ft | 535 kts | 91° |
| 2026-04-25 17:21 | 17.66135 | -60.88352 | 30986 ft | 533 kts | 92° |
| 2026-04-25 17:21 | 17.66152 | -60.80582 | 30991 ft | 533 kts | 92° |
| 2026-04-25 17:22 | 17.66165 | -60.74117 | 30985 ft | 534 kts | 92° |
| 2026-04-25 17:22 | 17.66180 | -60.65032 | 30987 ft | 532 kts | 92° |
| 2026-04-25 17:23 | 17.66190 | -60.57288 | 30980 ft | 530 kts | 92° |
| 2026-04-25 17:23 | 17.66196 | -60.49622 | 30979 ft | 529 kts | 92° |
| 2026-04-25 17:24 | 17.66200 | -60.41880 | 30986 ft | 527 kts | 92° |
| 2026-04-25 17:24 | 17.66201 | -60.34271 | 31117 ft | 522 kts | 92° |
| 2026-04-25 17:25 | 17.66200 | -60.30467 | 31354 ft | 523 kts | 92° |
| 2026-04-25 17:25 | 17.66197 | -60.26650 | 31599 ft | 525 kts | 92° |
| 2026-04-25 17:25 | 17.66194 | -60.22818 | 31828 ft | 527 kts | 92° |
| 2026-04-25 17:25 | 17.66250 | -60.18972 | 32066 ft | 529 kts | 88° |
| 2026-04-25 17:26 | 17.66603 | -60.15117 | 32310 ft | 531 kts | 85° |
| 2026-04-25 17:26 | 17.67061 | -60.11267 | 32560 ft | 533 kts | 84° |
| 2026-04-25 17:26 | 17.67544 | -60.07417 | 32800 ft | 534 kts | 84° |
| 2026-04-25 17:26 | 17.68027 | -60.03552 | 33048 ft | 534 kts | 84° |
| 2026-04-25 17:27 | 17.68496 | -59.99686 | 33291 ft | 535 kts | 84° |
| 2026-04-25 17:27 | 17.68951 | -59.95818 | 33539 ft | 535 kts | 84° |
| 2026-04-25 17:27 | 17.69394 | -59.91943 | 33788 ft | 535 kts | 84° |
| 2026-04-25 17:27 | 17.69683 | -59.89378 | 33952 ft | 535 kts | 85° |
| 2026-04-25 17:28 | 17.70262 | -59.84194 | 34240 ft | 535 kts | 85° |
| 2026-04-25 17:28 | 17.70692 | -59.80315 | 34429 ft | 536 kts | 85° |
| 2026-04-25 17:28 | 17.71122 | -59.76442 | 34600 ft | 534 kts | 85° |
| 2026-04-25 17:28 | 17.71551 | -59.72583 | 34771 ft | 531 kts | 85° |
| 2026-04-25 17:29 | 17.71979 | -59.68739 | 34896 ft | 531 kts | 85° |
| 2026-04-25 17:29 | 17.72408 | -59.64878 | 34941 ft | 534 kts | 85° |
| 2026-04-25 17:29 | 17.73268 | -59.57112 | 34983 ft | 537 kts | 85° |
| 2026-04-25 17:30 | 17.74128 | -59.49336 | 34994 ft | 536 kts | 85° |
| 2026-04-25 17:30 | 17.74984 | -59.41561 | 34989 ft | 537 kts | 85° |
| 2026-04-25 17:31 | 17.75838 | -59.33775 | 34999 ft | 538 kts | 85° |
| 2026-04-25 17:31 | 17.76690 | -59.25978 | 34989 ft | 538 kts | 85° |
| 2026-04-25 17:32 | 17.77540 | -59.18167 | 34989 ft | 539 kts | 85° |
| 2026-04-25 17:32 | 17.78388 | -59.10344 | 34992 ft | 540 kts | 85° |
| 2026-04-25 17:33 | 17.79235 | -59.02506 | 34994 ft | 541 kts | 85° |
| 2026-04-25 17:33 | 17.80079 | -58.94658 | 34996 ft | 541 kts | 86° |
| 2026-04-25 17:34 | 17.80920 | -58.86821 | 34995 ft | 541 kts | 86° |
| 2026-04-25 17:34 | 17.81759 | -58.78968 | 34992 ft | 541 kts | 86° |
| 2026-04-25 17:35 | 17.82592 | -58.71134 | 34994 ft | 540 kts | 86° |
| 2026-04-25 17:35 | 17.83422 | -58.63305 | 34995 ft | 539 kts | 86° |
| 2026-04-25 17:36 | 17.84248 | -58.55481 | 34993 ft | 539 kts | 86° |
| 2026-04-25 17:36 | 17.85070 | -58.47667 | 34996 ft | 538 kts | 86° |
| 2026-04-25 17:37 | 17.85888 | -58.39858 | 35000 ft | 538 kts | 86° |
| 2026-04-25 17:37 | 17.86702 | -58.32056 | 35000 ft | 538 kts | 86° |
| 2026-04-25 17:38 | 17.87240 | -58.26886 | 35000 ft | 538 kts | 86° |
| 2026-04-25 17:38 | 17.88316 | -58.16503 | 35004 ft | 537 kts | 86° |
| 2026-04-25 17:39 | 17.89121 | -58.08700 | 34996 ft | 538 kts | 86° |
| 2026-04-25 17:39 | 17.89922 | -58.00893 | 35002 ft | 538 kts | 86° |
| 2026-04-25 17:40 | 17.90587 | -57.94402 | 35000 ft | 538 kts | 86° |
| 2026-04-25 17:40 | 17.91519 | -57.85260 | 35004 ft | 539 kts | 86° |
| 2026-04-25 17:41 | 17.92313 | -57.77437 | 35000 ft | 539 kts | 86° |
| 2026-04-25 17:41 | 17.93104 | -57.69608 | 34999 ft | 539 kts | 86° |
| 2026-04-25 17:42 | 17.93893 | -57.61772 | 34996 ft | 540 kts | 86° |
| 2026-04-25 17:42 | 17.94680 | -57.53931 | 35000 ft | 540 kts | 86° |
| 2026-04-25 17:43 | 17.95462 | -57.46097 | 35001 ft | 540 kts | 86° |
| 2026-04-25 17:43 | 17.96242 | -57.38256 | 35001 ft | 540 kts | 86° |
| 2026-04-25 17:44 | 17.97018 | -57.30415 | 35005 ft | 540 kts | 86° |
| 2026-04-25 17:44 | 17.97792 | -57.22573 | 35004 ft | 540 kts | 86° |
| 2026-04-25 17:45 | 17.98307 | -57.17331 | 35004 ft | 540 kts | 86° |
| 2026-04-25 17:45 | 17.99330 | -57.06896 | 35001 ft | 540 kts | 85° |
| 2026-04-25 17:46 | 18.00845 | -56.99164 | 35007 ft | 542 kts | 74° |
| 2026-04-25 17:46 | 18.03590 | -56.91779 | 35007 ft | 543 kts | 64° |
| 2026-04-25 17:47 | 18.06899 | -56.84639 | 35000 ft | 544 kts | 64° |
| 2026-04-25 17:47 | 18.10216 | -56.77495 | 35008 ft | 544 kts | 64° |
| 2026-04-25 17:48 | 18.15113 | -56.66748 | 35006 ft | 543 kts | 65° |
| 2026-04-25 17:49 | 18.18351 | -56.59583 | 35007 ft | 542 kts | 65° |
| 2026-04-25 17:49 | 18.21559 | -56.52479 | 35023 ft | 541 kts | 65° |
| 2026-04-25 17:50 | 18.24784 | -56.45335 | 35004 ft | 540 kts | 65° |
| 2026-04-25 17:50 | 18.27999 | -56.38208 | 35006 ft | 539 kts | 65° |
| 2026-04-25 17:51 | 18.31207 | -56.31089 | 35006 ft | 538 kts | 65° |
| 2026-04-25 17:51 | 18.34408 | -56.23978 | 35004 ft | 537 kts | 65° |
| 2026-04-25 17:52 | 18.37601 | -56.16874 | 35012 ft | 537 kts | 65° |
| 2026-04-25 17:52 | 18.40791 | -56.09766 | 35002 ft | 537 kts | 65° |
| 2026-04-25 17:53 | 18.43982 | -56.02651 | 35007 ft | 538 kts | 65° |
| 2026-04-25 17:53 | 18.47174 | -55.95524 | 35009 ft | 538 kts | 65° |
| 2026-04-25 17:54 | 18.50368 | -55.88384 | 35012 ft | 539 kts | 65° |
| 2026-04-25 17:54 | 18.53564 | -55.81230 | 35012 ft | 540 kts | 65° |
| 2026-04-25 17:55 | 18.56764 | -55.74060 | 35017 ft | 540 kts | 65° |
| 2026-04-25 17:55 | 18.59961 | -55.66885 | 35002 ft | 541 kts | 65° |
| 2026-04-25 17:56 | 18.62619 | -55.60914 | 35014 ft | 542 kts | 65° |
| 2026-04-25 17:56 | 18.65821 | -55.53715 | 35012 ft | 542 kts | 65° |
| 2026-04-25 17:57 | 18.69540 | -55.45342 | 35018 ft | 542 kts | 65° |
| 2026-04-25 17:57 | 18.72213 | -55.39314 | 35011 ft | 542 kts | 65° |
| 2026-04-25 17:58 | 18.75400 | -55.32120 | 35014 ft | 541 kts | 65° |
| 2026-04-25 17:58 | 18.78579 | -55.24937 | 35008 ft | 540 kts | 65° |
| 2026-04-25 17:59 | 18.81753 | -55.17756 | 35019 ft | 540 kts | 65° |
| 2026-04-25 17:59 | 18.84923 | -55.10573 | 35017 ft | 540 kts | 65° |
| 2026-04-25 18:00 | 18.88090 | -55.03390 | 35018 ft | 540 kts | 65° |
| 2026-04-25 18:00 | 18.91253 | -54.96204 | 35023 ft | 539 kts | 65° |
| 2026-04-25 18:01 | 18.94412 | -54.89022 | 35019 ft | 539 kts | 65° |
| 2026-04-25 18:01 | 18.97570 | -54.81832 | 35013 ft | 540 kts | 65° |
| 2026-04-25 18:02 | 19.00730 | -54.74626 | 35017 ft | 541 kts | 65° |
| 2026-04-25 18:02 | 19.03892 | -54.67409 | 35027 ft | 541 kts | 65° |
| 2026-04-25 18:03 | 19.07033 | -54.60230 | 35021 ft | 542 kts | 65° |
| 2026-04-25 18:03 | 19.10194 | -54.52997 | 35019 ft | 542 kts | 65° |
| 2026-04-25 18:04 | 19.13353 | -54.45759 | 35018 ft | 542 kts | 65° |
| 2026-04-25 18:04 | 19.16508 | -54.38520 | 35016 ft | 542 kts | 65° |
| 2026-04-25 18:05 | 19.19661 | -54.31278 | 35020 ft | 542 kts | 65° |
| 2026-04-25 18:05 | 19.22813 | -54.24026 | 35014 ft | 543 kts | 65° |
| 2026-04-25 18:06 | 19.25962 | -54.16774 | 35025 ft | 542 kts | 65° |
| 2026-04-25 18:06 | 19.29107 | -54.09521 | 35017 ft | 542 kts | 65° |
| 2026-04-25 18:07 | 19.32246 | -54.02273 | 35020 ft | 542 kts | 65° |
| 2026-04-25 18:07 | 19.35384 | -53.95019 | 35020 ft | 542 kts | 65° |
| 2026-04-25 18:08 | 19.38520 | -53.87757 | 35024 ft | 542 kts | 65° |
| 2026-04-25 18:08 | 19.41656 | -53.80487 | 35022 ft | 543 kts | 65° |
| 2026-04-25 18:09 | 19.44793 | -53.73206 | 35019 ft | 543 kts | 65° |
| 2026-04-25 18:09 | 19.47926 | -53.65924 | 35026 ft | 543 kts | 65° |
| 2026-04-25 18:10 | 19.51055 | -53.58643 | 35034 ft | 543 kts | 65° |
| 2026-04-25 18:10 | 19.54184 | -53.51350 | 35025 ft | 544 kts | 65° |
| 2026-04-25 18:11 | 19.57315 | -53.44044 | 35028 ft | 545 kts | 65° |
| 2026-04-25 18:11 | 19.60448 | -53.36725 | 35028 ft | 545 kts | 65° |
| 2026-04-25 18:12 | 19.63582 | -53.29391 | 35028 ft | 546 kts | 65° |
| 2026-04-25 18:12 | 19.66715 | -53.22052 | 35027 ft | 546 kts | 65° |
| 2026-04-25 18:13 | 19.69846 | -53.14706 | 35028 ft | 547 kts | 65° |
| 2026-04-25 18:13 | 19.72976 | -53.07354 | 35031 ft | 547 kts | 65° |
| 2026-04-25 18:14 | 19.77668 | -52.96312 | 35028 ft | 547 kts | 65° |
| 2026-04-25 18:14 | 19.80793 | -52.88948 | 35026 ft | 547 kts | 65° |
| 2026-04-25 18:15 | 19.83914 | -52.81581 | 35030 ft | 547 kts | 65° |
| 2026-04-25 18:15 | 19.87030 | -52.74215 | 35027 ft | 547 kts | 65° |
| 2026-04-25 18:16 | 19.90124 | -52.66892 | 35030 ft | 547 kts | 65° |
| 2026-04-25 18:17 | 19.94788 | -52.55837 | 35032 ft | 547 kts | 65° |
| 2026-04-25 18:17 | 19.97892 | -52.48463 | 35033 ft | 546 kts | 65° |
| 2026-04-25 18:18 | 20.00992 | -52.41092 | 35034 ft | 546 kts | 65° |
| 2026-04-25 18:18 | 20.04086 | -52.33725 | 35029 ft | 545 kts | 65° |
| 2026-04-25 18:19 | 20.07174 | -52.26360 | 35024 ft | 545 kts | 65° |
| 2026-04-25 18:19 | 20.10253 | -52.19006 | 35030 ft | 544 kts | 65° |
| 2026-04-25 18:20 | 20.13326 | -52.11659 | 35028 ft | 543 kts | 65° |
| 2026-04-25 18:20 | 20.16390 | -52.04323 | 35026 ft | 542 kts | 65° |
| 2026-04-25 18:21 | 20.19445 | -51.96995 | 35037 ft | 542 kts | 65° |
| 2026-04-25 18:21 | 20.22501 | -51.89659 | 35026 ft | 542 kts | 65° |
| 2026-04-25 18:22 | 20.25554 | -51.82316 | 35026 ft | 542 kts | 65° |
| 2026-04-25 18:22 | 20.28607 | -51.74966 | 35034 ft | 543 kts | 65° |
| 2026-04-25 18:23 | 20.31658 | -51.67608 | 35032 ft | 544 kts | 65° |
| 2026-04-25 18:23 | 20.34711 | -51.60235 | 35037 ft | 544 kts | 65° |
| 2026-04-25 18:24 | 20.37765 | -51.52850 | 35033 ft | 545 kts | 65° |
| 2026-04-25 18:24 | 20.40818 | -51.45458 | 35039 ft | 545 kts | 65° |
| 2026-04-25 18:25 | 20.43872 | -51.38053 | 35036 ft | 546 kts | 65° |
| 2026-04-25 18:25 | 20.46926 | -51.30637 | 35035 ft | 546 kts | 65° |
| 2026-04-25 18:26 | 20.49974 | -51.23224 | 35040 ft | 546 kts | 65° |
| 2026-04-25 18:26 | 20.53018 | -51.15811 | 35035 ft | 546 kts | 65° |
| 2026-04-25 18:27 | 20.56061 | -51.08388 | 35038 ft | 546 kts | 65° |
| 2026-04-25 18:27 | 20.59100 | -51.00967 | 35035 ft | 546 kts | 65° |
| 2026-04-25 18:28 | 20.62137 | -50.93537 | 35033 ft | 546 kts | 65° |
| 2026-04-25 18:28 | 20.65170 | -50.86108 | 35036 ft | 546 kts | 65° |
| 2026-04-25 18:29 | 20.69694 | -50.75008 | 35040 ft | 546 kts | 65° |
| 2026-04-25 18:30 | 20.75746 | -50.60119 | 35042 ft | 547 kts | 65° |
| 2026-04-25 18:30 | 20.78769 | -50.52665 | 35040 ft | 547 kts | 65° |
| 2026-04-25 18:31 | 20.81790 | -50.45207 | 35042 ft | 547 kts | 65° |
| 2026-04-25 18:31 | 20.84806 | -50.37746 | 35040 ft | 547 kts | 65° |
| 2026-04-25 18:32 | 20.87821 | -50.30281 | 35043 ft | 547 kts | 65° |
| 2026-04-25 18:32 | 20.90832 | -50.22813 | 35044 ft | 547 kts | 65° |
| 2026-04-25 18:33 | 20.93838 | -50.15344 | 35038 ft | 547 kts | 65° |
| 2026-04-25 18:33 | 20.96837 | -50.07883 | 35041 ft | 546 kts | 65° |
| 2026-04-25 18:34 | 20.99784 | -50.00384 | 35037 ft | 547 kts | 69° |
| 2026-04-25 18:34 | 21.01867 | -49.92546 | 35045 ft | 548 kts | 76° |
| 2026-04-25 18:35 | 21.03633 | -49.84618 | 35040 ft | 548 kts | 76° |
| 2026-04-25 18:35 | 21.05419 | -49.76684 | 35040 ft | 548 kts | 76° |
| 2026-04-25 18:36 | 21.08802 | -49.62012 | 35042 ft | 548 kts | 75° |
| 2026-04-25 18:37 | 21.10634 | -49.54082 | 35046 ft | 549 kts | 75° |
| 2026-04-25 18:37 | 21.12460 | -49.46149 | 35043 ft | 549 kts | 75° |
| 2026-04-25 18:38 | 21.14279 | -49.38213 | 35048 ft | 549 kts | 75° |
| 2026-04-25 18:38 | 21.16096 | -49.30268 | 35036 ft | 549 kts | 75° |
| 2026-04-25 18:39 | 21.17908 | -49.22329 | 35043 ft | 548 kts | 75° |
| 2026-04-25 18:39 | 21.19715 | -49.14394 | 35043 ft | 548 kts | 75° |
| 2026-04-25 18:40 | 21.21518 | -49.06460 | 35046 ft | 548 kts | 75° |
| 2026-04-25 18:40 | 21.23318 | -48.98521 | 35047 ft | 548 kts | 75° |
| 2026-04-25 18:41 | 21.25112 | -48.90586 | 35048 ft | 548 kts | 75° |
| 2026-04-25 18:41 | 21.26905 | -48.82642 | 35045 ft | 548 kts | 75° |
| 2026-04-25 18:42 | 21.28390 | -48.76045 | 35047 ft | 548 kts | 75° |
| 2026-04-25 18:42 | 21.30476 | -48.66759 | 35048 ft | 548 kts | 75° |
| 2026-04-25 18:43 | 21.32257 | -48.58813 | 35048 ft | 548 kts | 75° |
| 2026-04-25 18:43 | 21.34023 | -48.50912 | 35046 ft | 549 kts | 75° |
| 2026-04-25 18:44 | 21.35800 | -48.42946 | 35044 ft | 549 kts | 75° |
| 2026-04-25 18:44 | 21.37573 | -48.34976 | 35051 ft | 549 kts | 75° |
| 2026-04-25 18:45 | 21.39342 | -48.27007 | 35050 ft | 549 kts | 75° |
| 2026-04-25 18:45 | 21.41109 | -48.19028 | 35046 ft | 549 kts | 75° |
| 2026-04-25 18:46 | 21.42870 | -48.11055 | 35049 ft | 549 kts | 75° |
| 2026-04-25 18:46 | 21.44627 | -48.03083 | 35050 ft | 549 kts | 75° |
| 2026-04-25 18:47 | 21.46379 | -47.95117 | 35050 ft | 548 kts | 75° |
| 2026-04-25 18:47 | 21.48124 | -47.87160 | 35051 ft | 547 kts | 75° |
| 2026-04-25 18:48 | 21.49865 | -47.79206 | 35043 ft | 547 kts | 75° |
| 2026-04-25 18:48 | 21.51599 | -47.71263 | 35049 ft | 546 kts | 75° |
| 2026-04-25 18:49 | 21.53328 | -47.63320 | 35052 ft | 546 kts | 75° |
| 2026-04-25 18:49 | 21.55044 | -47.55421 | 35045 ft | 546 kts | 75° |
| 2026-04-25 18:50 | 21.56767 | -47.47472 | 35053 ft | 546 kts | 75° |
| 2026-04-25 18:50 | 21.58487 | -47.39517 | 35051 ft | 547 kts | 75° |
| 2026-04-25 18:51 | 21.59924 | -47.32853 | 35052 ft | 547 kts | 75° |
| 2026-04-25 18:51 | 21.61916 | -47.23600 | 35051 ft | 547 kts | 75° |
| 2026-04-25 18:52 | 21.63627 | -47.15629 | 35047 ft | 548 kts | 75° |
| 2026-04-25 18:52 | 21.65334 | -47.07654 | 35051 ft | 548 kts | 75° |
| 2026-04-25 18:53 | 21.67039 | -46.99668 | 35049 ft | 548 kts | 75° |
| 2026-04-25 18:53 | 21.68741 | -46.91680 | 35052 ft | 548 kts | 75° |
| 2026-04-25 18:54 | 21.71287 | -46.79690 | 35054 ft | 548 kts | 75° |
| 2026-04-25 18:55 | 21.72980 | -46.71696 | 35058 ft | 549 kts | 76° |
| 2026-04-25 18:55 | 21.74670 | -46.63690 | 35053 ft | 549 kts | 76° |
| 2026-04-25 18:56 | 21.76356 | -46.55690 | 35060 ft | 549 kts | 76° |
| 2026-04-25 18:56 | 21.78038 | -46.47682 | 35061 ft | 549 kts | 76° |
| 2026-04-25 18:57 | 21.79716 | -46.39675 | 35057 ft | 548 kts | 76° |
| 2026-04-25 18:57 | 21.81389 | -46.31672 | 35070 ft | 548 kts | 76° |
| 2026-04-25 18:58 | 21.83060 | -46.23661 | 35057 ft | 549 kts | 76° |
| 2026-04-25 18:58 | 21.85560 | -46.11636 | 35055 ft | 549 kts | 76° |
| 2026-04-25 18:59 | 21.88880 | -45.95591 | 35053 ft | 549 kts | 76° |
| 2026-04-25 19:00 | 21.91348 | -45.83610 | 35067 ft | 549 kts | 76° |
| 2026-04-25 19:01 | 21.93822 | -45.71553 | 35066 ft | 550 kts | 76° |
| 2026-04-25 19:01 | 21.95467 | -45.63510 | 35062 ft | 550 kts | 76° |
| 2026-04-25 19:02 | 21.97928 | -45.51439 | 35064 ft | 550 kts | 76° |
| 2026-04-25 19:03 | 21.99839 | -45.42031 | 35067 ft | 550 kts | 76° |
| 2026-04-25 19:03 | 22.02010 | -45.31311 | 35063 ft | 550 kts | 76° |
| 2026-04-25 19:04 | 22.04446 | -45.19232 | 35062 ft | 550 kts | 76° |
| 2026-04-25 19:05 | 22.07682 | -45.03120 | 35063 ft | 550 kts | 76° |
| 2026-04-25 19:06 | 22.09292 | -44.95065 | 35072 ft | 550 kts | 76° |
| 2026-04-25 19:06 | 22.11701 | -44.82981 | 35066 ft | 549 kts | 76° |
| 2026-04-25 19:07 | 22.14098 | -44.70905 | 35067 ft | 549 kts | 76° |
| 2026-04-25 19:08 | 22.16487 | -44.58823 | 35074 ft | 549 kts | 76° |
| 2026-04-25 19:09 | 22.19390 | -44.44075 | 35072 ft | 549 kts | 76° |
| 2026-04-25 19:10 | 22.22021 | -44.30641 | 35072 ft | 548 kts | 76° |
| 2026-04-25 19:10 | 22.23591 | -44.22598 | 35073 ft | 548 kts | 76° |
| 2026-04-25 19:11 | 22.25146 | -44.14608 | 35073 ft | 547 kts | 76° |
| 2026-04-25 19:11 | 22.26716 | -44.06517 | 35075 ft | 547 kts | 76° |
| 2026-04-25 19:12 | 22.28272 | -43.98482 | 35073 ft | 547 kts | 76° |
| 2026-04-25 19:12 | 22.29822 | -43.90449 | 35075 ft | 547 kts | 76° |
| 2026-04-25 19:13 | 22.31359 | -43.82468 | 35077 ft | 547 kts | 76° |
| 2026-04-25 19:13 | 22.32903 | -43.74426 | 35079 ft | 547 kts | 76° |
| 2026-04-25 19:14 | 22.34443 | -43.66380 | 35076 ft | 547 kts | 76° |
| 2026-04-25 19:14 | 22.35980 | -43.58327 | 35081 ft | 548 kts | 76° |
| 2026-04-25 19:15 | 22.37515 | -43.50265 | 35076 ft | 548 kts | 76° |
| 2026-04-25 19:15 | 22.39047 | -43.42192 | 35076 ft | 548 kts | 76° |
| 2026-04-25 19:16 | 22.40576 | -43.34112 | 35081 ft | 549 kts | 76° |
| 2026-04-25 19:16 | 22.42102 | -43.26032 | 35069 ft | 549 kts | 76° |
| 2026-04-25 19:17 | 22.43623 | -43.17946 | 35083 ft | 549 kts | 76° |
| 2026-04-25 19:17 | 22.45139 | -43.09866 | 35078 ft | 548 kts | 76° |
| 2026-04-25 19:18 | 22.46650 | -43.01794 | 35089 ft | 548 kts | 76° |
| 2026-04-25 19:18 | 22.48156 | -42.93719 | 35082 ft | 548 kts | 76° |
| 2026-04-25 19:19 | 22.49658 | -42.85649 | 35077 ft | 547 kts | 76° |
| 2026-04-25 19:19 | 22.51155 | -42.77581 | 35080 ft | 547 kts | 76° |
| 2026-04-25 19:20 | 22.52648 | -42.69508 | 35087 ft | 547 kts | 76° |
| 2026-04-25 19:20 | 22.54136 | -42.61441 | 35083 ft | 547 kts | 76° |
| 2026-04-25 19:21 | 22.55623 | -42.53357 | 35084 ft | 548 kts | 76° |
| 2026-04-25 19:21 | 22.57846 | -42.41222 | 35086 ft | 549 kts | 76° |
| 2026-04-25 19:22 | 22.59316 | -42.33166 | 35086 ft | 549 kts | 76° |
| 2026-04-25 19:23 | 22.61530 | -42.20995 | 35087 ft | 550 kts | 76° |
| 2026-04-25 19:23 | 22.63499 | -42.10125 | 35089 ft | 550 kts | 76° |
| 2026-04-25 19:24 | 22.64967 | -42.01990 | 35091 ft | 551 kts | 76° |
| 2026-04-25 19:25 | 22.67892 | -41.85707 | 35093 ft | 551 kts | 76° |
| 2026-04-25 19:25 | 22.69349 | -41.77558 | 35093 ft | 551 kts | 76° |
| 2026-04-25 19:26 | 22.70802 | -41.69410 | 35093 ft | 551 kts | 76° |
| 2026-04-25 19:26 | 22.72252 | -41.61254 | 35090 ft | 551 kts | 76° |
| 2026-04-25 19:27 | 22.73453 | -41.54476 | 35092 ft | 551 kts | 76° |
| 2026-04-25 19:27 | 22.75136 | -41.44952 | 35091 ft | 551 kts | 76° |
| 2026-04-25 19:28 | 22.76571 | -41.36803 | 35090 ft | 550 kts | 76° |
| 2026-04-25 19:28 | 22.78000 | -41.28660 | 35094 ft | 550 kts | 76° |
| 2026-04-25 19:29 | 22.79425 | -41.20520 | 35094 ft | 550 kts | 76° |
| 2026-04-25 19:29 | 22.80836 | -41.12434 | 35095 ft | 550 kts | 76° |
| 2026-04-25 19:30 | 22.82252 | -41.04293 | 35093 ft | 549 kts | 76° |
| 2026-04-25 19:30 | 22.83663 | -40.96156 | 35098 ft | 549 kts | 76° |
| 2026-04-25 19:31 | 22.85071 | -40.88014 | 35101 ft | 550 kts | 76° |
| 2026-04-25 19:31 | 22.86474 | -40.79868 | 35097 ft | 550 kts | 76° |
| 2026-04-25 19:32 | 22.87876 | -40.71707 | 35098 ft | 550 kts | 76° |
| 2026-04-25 19:32 | 22.89028 | -40.64866 | 35102 ft | 552 kts | 78° |
| 2026-04-25 19:33 | 22.89284 | -40.55167 | 35107 ft | 556 kts | 93° |
| 2026-04-25 19:33 | 22.88067 | -40.46882 | 35110 ft | 558 kts | 101° |
| 2026-04-25 19:34 | 22.86483 | -40.38644 | 35103 ft | 559 kts | 101° |
| 2026-04-25 19:34 | 22.84917 | -40.30389 | 35097 ft | 559 kts | 101° |
| 2026-04-25 19:35 | 22.83393 | -40.22138 | 35104 ft | 559 kts | 101° |
| 2026-04-25 19:35 | 22.81882 | -40.13874 | 35100 ft | 559 kts | 101° |
| 2026-04-25 19:36 | 22.80366 | -40.05615 | 35102 ft | 558 kts | 101° |
| 2026-04-25 19:36 | 22.78842 | -39.97362 | 35101 ft | 559 kts | 101° |
| 2026-04-25 19:37 | 22.77313 | -39.89111 | 35103 ft | 559 kts | 101° |
| 2026-04-25 19:37 | 22.75778 | -39.80858 | 35098 ft | 558 kts | 101° |
| 2026-04-25 19:38 | 22.74241 | -39.72616 | 35099 ft | 558 kts | 101° |
| 2026-04-25 19:38 | 22.72701 | -39.64383 | 35103 ft | 558 kts | 101° |
| 2026-04-25 19:39 | 22.71158 | -39.56156 | 35110 ft | 557 kts | 101° |
| 2026-04-25 19:39 | 22.69621 | -39.47983 | 35102 ft | 558 kts | 101° |
| 2026-04-25 19:40 | 22.68070 | -39.39760 | 35105 ft | 558 kts | 101° |
| 2026-04-25 19:40 | 22.66514 | -39.31538 | 35095 ft | 558 kts | 101° |
| 2026-04-25 19:41 | 22.64953 | -39.23310 | 35104 ft | 557 kts | 101° |
| 2026-04-25 19:41 | 22.63907 | -39.17814 | 35103 ft | 557 kts | 101° |
| 2026-04-25 19:42 | 22.61821 | -39.06879 | 35110 ft | 558 kts | 101° |
| 2026-04-25 19:42 | 22.60247 | -38.98658 | 35106 ft | 558 kts | 101° |
| 2026-04-25 19:43 | 22.58669 | -38.90440 | 35107 ft | 558 kts | 101° |
| 2026-04-25 19:43 | 22.57086 | -38.82219 | 35106 ft | 558 kts | 101° |
| 2026-04-25 19:44 | 22.55500 | -38.74004 | 35099 ft | 558 kts | 101° |
| 2026-04-25 19:44 | 22.53911 | -38.65798 | 35112 ft | 557 kts | 101° |
| 2026-04-25 19:45 | 22.52320 | -38.57606 | 35103 ft | 557 kts | 101° |
| 2026-04-25 19:45 | 22.50725 | -38.49413 | 35106 ft | 556 kts | 101° |
| 2026-04-25 19:46 | 22.49126 | -38.41226 | 35115 ft | 556 kts | 101° |
| 2026-04-25 19:46 | 22.47524 | -38.33043 | 35106 ft | 557 kts | 101° |
| 2026-04-25 19:47 | 22.45916 | -38.24858 | 35107 ft | 557 kts | 101° |
| 2026-04-25 19:47 | 22.44303 | -38.16670 | 35113 ft | 557 kts | 101° |
| 2026-04-25 19:48 | 22.42684 | -38.08471 | 35109 ft | 558 kts | 101° |
| 2026-04-25 19:48 | 22.41060 | -38.00271 | 35112 ft | 559 kts | 101° |
| 2026-04-25 19:49 | 22.39970 | -37.94778 | 35112 ft | 559 kts | 101° |
| 2026-04-25 19:49 | 22.37792 | -37.83835 | 35110 ft | 560 kts | 101° |
| 2026-04-25 19:50 | 22.35325 | -37.71493 | 35107 ft | 561 kts | 101° |
| 2026-04-25 19:51 | 22.33673 | -37.63256 | 35110 ft | 561 kts | 101° |
| 2026-04-25 19:51 | 22.32019 | -37.55028 | 35108 ft | 560 kts | 101° |
| 2026-04-25 19:52 | 22.30362 | -37.46812 | 35119 ft | 560 kts | 101° |
| 2026-04-25 19:52 | 22.28701 | -37.38597 | 35110 ft | 560 kts | 101° |
| 2026-04-25 19:53 | 22.27036 | -37.30383 | 35112 ft | 560 kts | 101° |
| 2026-04-25 19:53 | 22.25379 | -37.22229 | 35126 ft | 560 kts | 101° |
| 2026-04-25 19:54 | 22.23694 | -37.13965 | 35109 ft | 560 kts | 101° |
| 2026-04-25 19:54 | 22.22030 | -37.05822 | 35109 ft | 559 kts | 101° |
| 2026-04-25 19:55 | 22.20624 | -36.98959 | 35120 ft | 559 kts | 101° |
| 2026-04-25 19:55 | 22.18666 | -36.89432 | 35109 ft | 559 kts | 101° |
| 2026-04-25 19:56 | 22.16979 | -36.81239 | 35111 ft | 560 kts | 101° |
| 2026-04-25 19:56 | 22.15287 | -36.73049 | 35124 ft | 560 kts | 101° |
| 2026-04-25 19:57 | 22.13588 | -36.64848 | 35106 ft | 561 kts | 101° |
| 2026-04-25 19:57 | 22.11884 | -36.56641 | 35108 ft | 560 kts | 102° |
| 2026-04-25 19:58 | 22.10177 | -36.48444 | 35112 ft | 560 kts | 102° |
| 2026-04-25 19:58 | 22.08466 | -36.40250 | 35110 ft | 560 kts | 102° |
| 2026-04-25 19:59 | 22.06753 | -36.32065 | 35112 ft | 560 kts | 102° |
| 2026-04-25 19:59 | 22.05037 | -36.23887 | 35118 ft | 559 kts | 102° |
| 2026-04-25 20:00 | 22.03316 | -36.15707 | 35109 ft | 559 kts | 102° |
| 2026-04-25 20:00 | 22.01593 | -36.07536 | 35114 ft | 559 kts | 102° |
| 2026-04-25 20:01 | 21.98531 | -35.95421 | 35113 ft | 559 kts | 111° |
| 2026-04-25 20:01 | 21.95725 | -35.87602 | 35124 ft | 563 kts | 111° |
| 2026-04-25 20:02 | 21.92865 | -35.79690 | 35120 ft | 570 kts | 111° |
| 2026-04-25 20:02 | 21.90021 | -35.71698 | 35119 ft | 573 kts | 111° |
| 2026-04-25 20:03 | 21.87208 | -35.63725 | 35110 ft | 574 kts | 111° |
| 2026-04-25 20:03 | 21.84356 | -35.55645 | 35098 ft | 573 kts | 111° |
| 2026-04-25 20:04 | 21.81520 | -35.47640 | 35113 ft | 571 kts | 111° |
| 2026-04-25 20:04 | 21.78705 | -35.39715 | 35103 ft | 570 kts | 111° |
| 2026-04-25 20:05 | 21.75874 | -35.31759 | 35104 ft | 569 kts | 111° |
| 2026-04-25 20:05 | 21.73043 | -35.23818 | 35111 ft | 568 kts | 111° |
| 2026-04-25 20:06 | 21.70212 | -35.15889 | 35101 ft | 568 kts | 111° |
| 2026-04-25 20:06 | 21.67379 | -35.07968 | 35098 ft | 567 kts | 111° |
| 2026-04-25 20:07 | 21.64546 | -35.00060 | 35104 ft | 567 kts | 111° |
| 2026-04-25 20:07 | 21.61710 | -34.92158 | 35108 ft | 567 kts | 111° |
| 2026-04-25 20:08 | 21.59347 | -34.85582 | 35104 ft | 567 kts | 111° |
| 2026-04-25 20:08 | 21.56501 | -34.77677 | 35104 ft | 568 kts | 111° |
| 2026-04-25 20:09 | 21.53647 | -34.69763 | 35115 ft | 569 kts | 111° |
| 2026-04-25 20:09 | 21.50786 | -34.61842 | 35105 ft | 569 kts | 111° |
| 2026-04-25 20:10 | 21.47922 | -34.53930 | 35104 ft | 569 kts | 111° |
| 2026-04-25 20:10 | 21.45055 | -34.46017 | 35106 ft | 569 kts | 111° |
| 2026-04-25 20:11 | 21.42181 | -34.38102 | 35104 ft | 569 kts | 111° |
| 2026-04-25 20:11 | 21.39302 | -34.30186 | 35105 ft | 569 kts | 111° |
| 2026-04-25 20:12 | 21.36419 | -34.22273 | 35084 ft | 569 kts | 111° |
| 2026-04-25 20:12 | 21.34023 | -34.15705 | 35102 ft | 569 kts | 111° |
| 2026-04-25 20:13 | 21.30648 | -34.06471 | 35107 ft | 569 kts | 111° |
| 2026-04-25 20:13 | 21.27760 | -33.98583 | 35106 ft | 568 kts | 111° |
| 2026-04-25 20:14 | 21.24868 | -33.90696 | 35104 ft | 568 kts | 111° |
| 2026-04-25 20:14 | 21.21972 | -33.82813 | 35105 ft | 568 kts | 111° |
| 2026-04-25 20:15 | 21.19075 | -33.74939 | 35080 ft | 568 kts | 112° |
| 2026-04-25 20:15 | 21.16176 | -33.67075 | 35105 ft | 567 kts | 112° |
| 2026-04-25 20:16 | 21.13276 | -33.59221 | 35097 ft | 567 kts | 112° |
| 2026-04-25 20:16 | 21.10376 | -33.51378 | 35102 ft | 566 kts | 112° |
| 2026-04-25 20:17 | 21.07471 | -33.43535 | 35099 ft | 566 kts | 112° |
| 2026-04-25 20:17 | 21.04565 | -33.35702 | 35094 ft | 566 kts | 112° |
| 2026-04-25 20:18 | 21.01652 | -33.27861 | 35103 ft | 567 kts | 112° |
| 2026-04-25 20:18 | 20.98736 | -33.20026 | 35095 ft | 567 kts | 112° |
| 2026-04-25 20:19 | 20.95813 | -33.12185 | 35096 ft | 566 kts | 112° |
| 2026-04-25 20:19 | 20.92907 | -33.04402 | 35089 ft | 562 kts | 112° |
| 2026-04-25 20:20 | 20.90012 | -32.96662 | 35090 ft | 560 kts | 112° |
| 2026-04-25 20:20 | 20.87121 | -32.88944 | 35094 ft | 559 kts | 112° |
| 2026-04-25 20:21 | 20.84225 | -32.81225 | 35079 ft | 560 kts | 112° |
| 2026-04-25 20:21 | 20.81341 | -32.73551 | 35098 ft | 560 kts | 112° |
| 2026-04-25 20:22 | 20.78903 | -32.67071 | 35097 ft | 561 kts | 112° |
| 2026-04-25 20:22 | 20.75510 | -32.58070 | 35094 ft | 563 kts | 112° |
| 2026-04-25 20:23 | 20.72581 | -32.50311 | 35091 ft | 564 kts | 112° |
| 2026-04-25 20:23 | 20.69642 | -32.42540 | 35096 ft | 564 kts | 112° |
| 2026-04-25 20:24 | 20.66699 | -32.34769 | 35075 ft | 565 kts | 112° |
| 2026-04-25 20:24 | 20.63751 | -32.26996 | 35090 ft | 565 kts | 112° |
| 2026-04-25 20:25 | 20.60802 | -32.19232 | 35087 ft | 564 kts | 112° |
| 2026-04-25 20:25 | 20.57852 | -32.11481 | 35088 ft | 563 kts | 112° |
| 2026-04-25 20:26 | 20.54903 | -32.03742 | 35090 ft | 563 kts | 112° |
| 2026-04-25 20:26 | 20.51948 | -31.96001 | 35088 ft | 563 kts | 112° |
| 2026-04-25 20:27 | 20.48994 | -31.88271 | 35091 ft | 563 kts | 112° |
| 2026-04-25 20:27 | 20.46040 | -31.80554 | 35089 ft | 562 kts | 112° |
| 2026-04-25 20:28 | 20.43084 | -31.72843 | 35087 ft | 561 kts | 112° |
| 2026-04-25 20:28 | 20.39962 | -31.65229 | 35083 ft | 560 kts | 116° |
| 2026-04-25 20:29 | 20.36592 | -31.57736 | 35088 ft | 560 kts | 116° |
| 2026-04-25 20:29 | 20.33219 | -31.50257 | 35082 ft | 560 kts | 116° |
| 2026-04-25 20:30 | 20.29890 | -31.42750 | 35080 ft | 561 kts | 116° |
| 2026-04-25 20:30 | 20.26583 | -31.35232 | 35088 ft | 560 kts | 116° |
| 2026-04-25 20:31 | 20.23278 | -31.27721 | 35084 ft | 560 kts | 116° |
| 2026-04-25 20:31 | 20.19967 | -31.20222 | 35083 ft | 560 kts | 116° |
| 2026-04-25 20:32 | 20.16649 | -31.12725 | 35081 ft | 559 kts | 116° |
| 2026-04-25 20:32 | 20.13333 | -31.05242 | 35081 ft | 559 kts | 116° |
| 2026-04-25 20:33 | 20.10035 | -30.97810 | 35084 ft | 559 kts | 116° |
| 2026-04-25 20:33 | 20.07255 | -30.91552 | 35079 ft | 558 kts | 116° |
| 2026-04-25 20:34 | 20.03396 | -30.82877 | 35084 ft | 558 kts | 116° |
| 2026-04-25 20:34 | 20.00075 | -30.75422 | 35079 ft | 558 kts | 116° |
| 2026-04-25 20:35 | 19.96752 | -30.67973 | 35087 ft | 558 kts | 116° |
| 2026-04-25 20:35 | 19.93425 | -30.60526 | 35081 ft | 558 kts | 116° |
| 2026-04-25 20:36 | 19.90095 | -30.53083 | 35079 ft | 558 kts | 116° |
| 2026-04-25 20:36 | 19.86762 | -30.45641 | 35072 ft | 557 kts | 116° |
| 2026-04-25 20:37 | 19.83429 | -30.38210 | 35087 ft | 557 kts | 116° |
| 2026-04-25 20:37 | 19.80094 | -30.30785 | 35078 ft | 557 kts | 116° |
| 2026-04-25 20:38 | 19.76757 | -30.23364 | 35076 ft | 557 kts | 116° |
| 2026-04-25 20:38 | 19.73418 | -30.15950 | 35076 ft | 557 kts | 116° |
| 2026-04-25 20:39 | 19.70075 | -30.08538 | 35082 ft | 557 kts | 116° |
| 2026-04-25 20:39 | 19.67838 | -30.03583 | 35060 ft | 557 kts | 116° |
| 2026-04-25 20:40 | 19.63383 | -29.93727 | 35072 ft | 556 kts | 116° |
| 2026-04-25 20:40 | 19.60036 | -29.86334 | 35073 ft | 556 kts | 116° |
| 2026-04-25 20:41 | 19.56686 | -29.78944 | 35074 ft | 556 kts | 116° |
| 2026-04-25 20:41 | 19.53333 | -29.71557 | 35073 ft | 556 kts | 116° |
| 2026-04-25 20:42 | 19.49976 | -29.64172 | 35071 ft | 556 kts | 116° |
| 2026-04-25 20:42 | 19.46618 | -29.56793 | 35057 ft | 556 kts | 116° |
| 2026-04-25 20:43 | 19.43258 | -29.49420 | 35068 ft | 555 kts | 116° |
| 2026-04-25 20:43 | 19.39896 | -29.42053 | 35067 ft | 555 kts | 116° |
| 2026-04-25 20:44 | 19.36533 | -29.34692 | 35066 ft | 555 kts | 116° |
| 2026-04-25 20:44 | 19.33169 | -29.27338 | 35065 ft | 555 kts | 116° |
| 2026-04-25 20:45 | 19.29800 | -29.19984 | 35064 ft | 555 kts | 116° |
| 2026-04-25 20:45 | 19.26428 | -29.12630 | 35066 ft | 556 kts | 116° |
| 2026-04-25 20:46 | 19.23049 | -29.05275 | 35063 ft | 555 kts | 116° |
| 2026-04-25 20:46 | 19.19674 | -28.97934 | 35059 ft | 555 kts | 116° |
| 2026-04-25 20:47 | 19.16298 | -28.90601 | 35061 ft | 555 kts | 116° |
| 2026-04-25 20:47 | 19.12918 | -28.83271 | 35060 ft | 555 kts | 116° |
| 2026-04-25 20:48 | 19.09536 | -28.75943 | 35061 ft | 554 kts | 116° |
| 2026-04-25 20:48 | 19.06150 | -28.68618 | 35057 ft | 555 kts | 117° |
| 2026-04-25 20:49 | 19.02760 | -28.61292 | 35056 ft | 555 kts | 117° |
| 2026-04-25 20:49 | 18.99367 | -28.53968 | 35055 ft | 555 kts | 117° |
| 2026-04-25 20:50 | 18.95967 | -28.46640 | 35054 ft | 555 kts | 117° |
| 2026-04-25 20:50 | 18.93139 | -28.40551 | 35055 ft | 556 kts | 117° |
| 2026-04-25 20:51 | 18.89731 | -28.33223 | 35054 ft | 556 kts | 117° |
| 2026-04-25 20:51 | 18.85768 | -28.24710 | 35054 ft | 556 kts | 117° |
| 2026-04-25 20:52 | 18.83483 | -28.19810 | 35058 ft | 556 kts | 117° |
| 2026-04-25 20:52 | 18.79491 | -28.11255 | 35055 ft | 555 kts | 117° |
| 2026-04-25 20:53 | 18.76078 | -28.03951 | 35051 ft | 555 kts | 117° |
| 2026-04-25 20:53 | 18.72663 | -27.96652 | 35045 ft | 554 kts | 117° |
| 2026-04-25 20:54 | 18.69250 | -27.89368 | 35046 ft | 554 kts | 117° |
| 2026-04-25 20:54 | 18.65840 | -27.82096 | 35043 ft | 553 kts | 117° |
| 2026-04-25 20:55 | 18.62428 | -27.74831 | 35048 ft | 553 kts | 117° |
| 2026-04-25 20:55 | 18.59012 | -27.67566 | 35035 ft | 553 kts | 117° |
| 2026-04-25 20:56 | 18.55597 | -27.60311 | 35048 ft | 552 kts | 117° |
| 2026-04-25 20:56 | 18.52181 | -27.53065 | 35044 ft | 552 kts | 117° |
| 2026-04-25 20:57 | 18.48766 | -27.45827 | 35048 ft | 551 kts | 117° |
| 2026-04-25 20:57 | 18.45350 | -27.38599 | 35042 ft | 551 kts | 117° |
| 2026-04-25 20:58 | 18.41932 | -27.31371 | 35044 ft | 551 kts | 117° |
| 2026-04-25 20:58 | 18.38513 | -27.24152 | 35044 ft | 551 kts | 117° |
| 2026-04-25 20:59 | 18.35090 | -27.16934 | 35043 ft | 551 kts | 117° |
| 2026-04-25 20:59 | 18.31690 | -27.09771 | 35037 ft | 551 kts | 117° |
| 2026-04-25 21:00 | 18.28821 | -27.03734 | 35038 ft | 551 kts | 117° |
| 2026-04-25 21:01 | 18.23122 | -26.91761 | 35040 ft | 550 kts | 117° |
| 2026-04-25 21:01 | 18.19693 | -26.84567 | 35036 ft | 550 kts | 117° |
| 2026-04-25 21:02 | 18.16258 | -26.77370 | 35032 ft | 550 kts | 117° |
| 2026-04-25 21:02 | 18.12823 | -26.70180 | 35025 ft | 550 kts | 117° |
| 2026-04-25 21:03 | 18.09387 | -26.62997 | 35037 ft | 549 kts | 117° |
| 2026-04-25 21:03 | 18.05955 | -26.55831 | 35027 ft | 549 kts | 117° |
| 2026-04-25 21:04 | 18.02523 | -26.48673 | 35027 ft | 548 kts | 117° |
| 2026-04-25 21:04 | 17.99092 | -26.41525 | 35027 ft | 548 kts | 117° |
| 2026-04-25 21:05 | 17.95662 | -26.34388 | 35027 ft | 547 kts | 117° |
| 2026-04-25 21:05 | 17.92231 | -26.27257 | 35027 ft | 547 kts | 117° |
| 2026-04-25 21:06 | 17.88797 | -26.20126 | 35011 ft | 547 kts | 117° |
| 2026-04-25 21:06 | 17.85366 | -26.13010 | 35022 ft | 546 kts | 117° |
| 2026-04-25 21:07 | 17.81936 | -26.05902 | 35022 ft | 546 kts | 117° |
| 2026-04-25 21:07 | 17.78474 | -25.98825 | 35021 ft | 545 kts | 119° |
| 2026-04-25 21:08 | 17.74866 | -25.91897 | 35024 ft | 544 kts | 120° |
| 2026-04-25 21:08 | 17.71192 | -25.84950 | 35023 ft | 545 kts | 120° |
| 2026-04-25 21:09 | 17.65720 | -25.74511 | 35021 ft | 545 kts | 120° |
| 2026-04-25 21:09 | 17.62090 | -25.67554 | 35031 ft | 544 kts | 120° |
| 2026-04-25 21:10 | 17.58459 | -25.60599 | 35018 ft | 543 kts | 120° |
| 2026-04-25 21:10 | 17.54832 | -25.53664 | 35015 ft | 542 kts | 120° |
| 2026-04-25 21:11 | 17.51207 | -25.46745 | 35031 ft | 541 kts | 120° |
| 2026-04-25 21:11 | 17.47585 | -25.39838 | 35017 ft | 541 kts | 120° |
| 2026-04-25 21:12 | 17.43963 | -25.32938 | 35018 ft | 540 kts | 120° |
| 2026-04-25 21:12 | 17.40956 | -25.27213 | 35035 ft | 540 kts | 120° |
| 2026-04-25 21:13 | 17.36726 | -25.19171 | 35021 ft | 539 kts | 120° |
| 2026-04-25 21:13 | 17.33111 | -25.12305 | 35017 ft | 538 kts | 120° |
| 2026-04-25 21:14 | 17.29498 | -25.05451 | 35005 ft | 537 kts | 120° |
| 2026-04-25 21:14 | 17.25891 | -24.98615 | 35021 ft | 537 kts | 120° |
| 2026-04-25 21:15 | 17.22281 | -24.91780 | 35017 ft | 536 kts | 120° |
| 2026-04-25 21:15 | 17.18695 | -24.84998 | 35009 ft | 536 kts | 120° |
| 2026-04-25 21:16 | 17.15063 | -24.78137 | 35005 ft | 536 kts | 120° |
| 2026-04-25 21:16 | 17.11476 | -24.71366 | 35012 ft | 535 kts | 120° |
| 2026-04-25 21:17 | 17.07867 | -24.64561 | 34999 ft | 535 kts | 120° |
| 2026-04-25 21:17 | 17.04261 | -24.57769 | 35003 ft | 535 kts | 120° |
| 2026-04-25 21:18 | 17.00651 | -24.50975 | 35008 ft | 534 kts | 120° |
| 2026-04-25 21:18 | 16.97040 | -24.44187 | 34978 ft | 534 kts | 120° |
| 2026-04-25 21:19 | 16.93428 | -24.37405 | 34987 ft | 534 kts | 120° |
| 2026-04-25 21:19 | 16.89812 | -24.30621 | 34992 ft | 535 kts | 120° |
| 2026-04-25 21:20 | 16.86781 | -24.24941 | 34983 ft | 534 kts | 120° |
| 2026-04-25 21:20 | 16.82575 | -24.17065 | 34988 ft | 534 kts | 120° |
| 2026-04-25 21:21 | 16.78956 | -24.10295 | 34999 ft | 534 kts | 120° |
| 2026-04-25 21:21 | 16.75331 | -24.03522 | 34996 ft | 534 kts | 120° |
| 2026-04-25 21:22 | 16.71707 | -23.96756 | 34997 ft | 534 kts | 120° |
| 2026-04-25 21:22 | 16.68078 | -23.89988 | 34999 ft | 534 kts | 120° |
| 2026-04-25 21:23 | 16.64447 | -23.83224 | 34992 ft | 535 kts | 120° |
| 2026-04-25 21:23 | 16.60814 | -23.76462 | 34996 ft | 535 kts | 121° |
| 2026-04-25 21:24 | 16.57168 | -23.69683 | 34999 ft | 539 kts | 121° |
| 2026-04-25 21:24 | 16.53468 | -23.62812 | 34992 ft | 547 kts | 121° |
| 2026-04-25 21:25 | 16.49732 | -23.55879 | 34989 ft | 549 kts | 121° |
| 2026-04-25 21:25 | 16.45987 | -23.48934 | 34978 ft | 550 kts | 121° |
| 2026-04-25 21:26 | 16.42263 | -23.42036 | 34979 ft | 550 kts | 121° |
| 2026-04-25 21:26 | 16.38517 | -23.35104 | 34971 ft | 549 kts | 121° |
| 2026-04-25 21:27 | 16.34782 | -23.28200 | 34964 ft | 547 kts | 121° |
| 2026-04-25 21:27 | 16.31052 | -23.21313 | 34968 ft | 545 kts | 121° |
| 2026-04-25 21:28 | 16.27335 | -23.14454 | 34968 ft | 543 kts | 121° |
| 2026-04-25 21:28 | 16.23622 | -23.07612 | 34976 ft | 542 kts | 121° |
| 2026-04-25 21:29 | 16.19917 | -23.00789 | 34978 ft | 542 kts | 121° |
| 2026-04-25 21:29 | 16.16210 | -22.93968 | 34966 ft | 542 kts | 121° |
| 2026-04-25 21:30 | 16.12501 | -22.87143 | 34976 ft | 542 kts | 121° |
| 2026-04-25 21:30 | 16.09458 | -22.81443 | 34963 ft | 543 kts | 120° |
| 2026-04-25 21:31 | 16.05210 | -22.73407 | 34992 ft | 542 kts | 120° |
| 2026-04-25 21:31 | 16.01570 | -22.66540 | 34978 ft | 542 kts | 121° |
| 2026-04-25 21:32 | 15.97922 | -22.59680 | 34980 ft | 542 kts | 121° |
| 2026-04-25 21:32 | 15.94293 | -22.52870 | 34976 ft | 542 kts | 121° |
| 2026-04-25 21:33 | 15.90642 | -22.46026 | 34978 ft | 541 kts | 121° |
| 2026-04-25 21:33 | 15.86991 | -22.39187 | 34974 ft | 541 kts | 121° |
| 2026-04-25 21:34 | 15.83339 | -22.32351 | 34964 ft | 541 kts | 121° |
| 2026-04-25 21:34 | 15.79689 | -22.25525 | 34974 ft | 540 kts | 121° |
| 2026-04-25 21:35 | 15.76043 | -22.18714 | 34972 ft | 539 kts | 121° |
| 2026-04-25 21:35 | 15.72404 | -22.11922 | 34972 ft | 538 kts | 121° |
| 2026-04-25 21:36 | 15.68764 | -22.05135 | 34969 ft | 538 kts | 121° |
| 2026-04-25 21:36 | 15.65127 | -21.98359 | 34971 ft | 537 kts | 121° |
| 2026-04-25 21:37 | 15.62694 | -21.93829 | 34970 ft | 537 kts | 121° |
| 2026-04-25 21:37 | 15.57846 | -21.84813 | 34970 ft | 537 kts | 121° |
| 2026-04-25 21:38 | 15.54203 | -21.78046 | 34965 ft | 537 kts | 121° |
| 2026-04-25 21:38 | 15.51177 | -21.72428 | 34966 ft | 537 kts | 121° |
| 2026-04-25 21:39 | 15.47533 | -21.65669 | 34961 ft | 537 kts | 121° |
| 2026-04-25 21:39 | 15.43887 | -21.58913 | 34962 ft | 537 kts | 121° |
| 2026-04-25 21:40 | 15.40241 | -21.52164 | 34963 ft | 537 kts | 121° |
| 2026-04-25 21:40 | 15.36592 | -21.45415 | 34960 ft | 537 kts | 121° |
| 2026-04-25 21:41 | 15.32940 | -21.38666 | 34962 ft | 537 kts | 121° |
| 2026-04-25 21:41 | 15.29286 | -21.31921 | 34961 ft | 537 kts | 121° |
| 2026-04-25 21:42 | 15.25628 | -21.25173 | 34954 ft | 537 kts | 121° |
| 2026-04-25 21:42 | 15.21974 | -21.18438 | 34959 ft | 537 kts | 121° |
| 2026-04-25 21:43 | 15.18317 | -21.11704 | 34958 ft | 537 kts | 121° |
| 2026-04-25 21:43 | 15.14655 | -21.04967 | 34956 ft | 537 kts | 121° |
| 2026-04-25 21:44 | 15.10994 | -20.98240 | 34952 ft | 537 kts | 121° |
| 2026-04-25 21:45 | 15.05496 | -20.88145 | 34952 ft | 537 kts | 121° |
| 2026-04-25 21:45 | 15.01829 | -20.81420 | 34954 ft | 537 kts | 121° |
| 2026-04-25 21:46 | 14.98186 | -20.74745 | 34952 ft | 536 kts | 121° |
| 2026-04-25 21:46 | 14.94518 | -20.68029 | 34947 ft | 536 kts | 121° |
| 2026-04-25 21:47 | 14.90850 | -20.61318 | 34946 ft | 536 kts | 121° |
| 2026-04-25 21:47 | 14.87675 | -20.54357 | 34947 ft | 537 kts | 110° |
| 2026-04-25 21:48 | 14.85804 | -20.46880 | 34945 ft | 539 kts | 98° |
| 2026-04-25 21:48 | 14.84813 | -20.39213 | 34954 ft | 538 kts | 97° |
| 2026-04-25 21:49 | 14.83840 | -20.31541 | 34941 ft | 538 kts | 98° |
| 2026-04-25 21:49 | 14.82827 | -20.23870 | 34945 ft | 539 kts | 98° |
| 2026-04-25 21:50 | 14.81788 | -20.16204 | 34938 ft | 539 kts | 98° |
| 2026-04-25 21:50 | 14.80741 | -20.08533 | 34941 ft | 539 kts | 98° |
| 2026-04-25 21:51 | 14.79694 | -20.00862 | 34937 ft | 539 kts | 98° |
| 2026-04-25 21:51 | 14.78647 | -19.93192 | 34937 ft | 539 kts | 98° |
| 2026-04-25 21:52 | 14.77598 | -19.85521 | 34939 ft | 539 kts | 98° |
| 2026-04-25 21:52 | 14.76545 | -19.77846 | 34940 ft | 539 kts | 98° |
| 2026-04-25 21:53 | 14.75491 | -19.70181 | 34933 ft | 538 kts | 98° |
| 2026-04-25 21:53 | 14.74436 | -19.62531 | 34928 ft | 537 kts | 98° |
| 2026-04-25 21:54 | 14.73381 | -19.54896 | 34927 ft | 536 kts | 98° |
| 2026-04-25 21:54 | 14.72326 | -19.47280 | 34930 ft | 535 kts | 98° |
| 2026-04-25 21:55 | 14.71269 | -19.39676 | 34929 ft | 535 kts | 98° |
| 2026-04-25 21:55 | 14.70212 | -19.32078 | 34925 ft | 534 kts | 98° |
| 2026-04-25 21:56 | 14.69160 | -19.24543 | 34556 ft | 528 kts | 98° |
| 2026-04-25 21:56 | 14.68812 | -19.22055 | 34305 ft | 527 kts | 98° |
| 2026-04-25 21:56 | 14.68110 | -19.17042 | 33788 ft | 527 kts | 98° |
| 2026-04-25 21:56 | 14.67586 | -19.13303 | 33418 ft | 525 kts | 98° |
| 2026-04-25 21:57 | 14.67065 | -19.09595 | 32987 ft | 519 kts | 98° |
| 2026-04-25 21:57 | 14.66548 | -19.05919 | 32489 ft | 514 kts | 97° |
| 2026-04-25 21:57 | 14.66036 | -19.02281 | 32011 ft | 510 kts | 97° |
| 2026-04-25 21:57 | 14.65528 | -18.98677 | 31553 ft | 505 kts | 97° |
| 2026-04-25 21:58 | 14.65026 | -18.95113 | 31076 ft | 501 kts | 97° |
| 2026-04-25 21:58 | 14.64531 | -18.91608 | 30612 ft | 497 kts | 96° |
| 2026-04-25 21:58 | 14.64033 | -18.88086 | 30145 ft | 494 kts | 96° |
| 2026-04-25 21:58 | 14.63539 | -18.84593 | 29605 ft | 491 kts | 96° |
| 2026-04-25 21:59 | 14.63047 | -18.81115 | 29106 ft | 487 kts | 96° |
| 2026-04-25 21:59 | 14.62560 | -18.77675 | 28610 ft | 483 kts | 96° |
| 2026-04-25 21:59 | 14.62075 | -18.74259 | 28133 ft | 479 kts | 96° |
| 2026-04-25 22:00 | 14.61117 | -18.67516 | 27194 ft | 471 kts | 97° |
| 2026-04-25 22:00 | 14.60644 | -18.64189 | 26743 ft | 467 kts | 97° |
| 2026-04-25 22:00 | 14.60173 | -18.60885 | 26285 ft | 463 kts | 97° |
| 2026-04-25 22:00 | 14.59705 | -18.57606 | 25831 ft | 460 kts | 97° |
| 2026-04-25 22:01 | 14.59240 | -18.54348 | 25371 ft | 457 kts | 97° |
| 2026-04-25 22:01 | 14.58778 | -18.51112 | 24900 ft | 455 kts | 97° |
| 2026-04-25 22:01 | 14.58317 | -18.47890 | 24450 ft | 452 kts | 97° |
| 2026-04-25 22:01 | 14.58013 | -18.45767 | 24152 ft | 451 kts | 97° |
| 2026-04-25 22:02 | 14.57401 | -18.41499 | 23558 ft | 448 kts | 97° |
| 2026-04-25 22:02 | 14.56947 | -18.38330 | 23041 ft | 445 kts | 98° |
| 2026-04-25 22:02 | 14.56494 | -18.35178 | 22562 ft | 442 kts | 98° |
| 2026-04-25 22:02 | 14.56045 | -18.32057 | 22125 ft | 438 kts | 98° |
| 2026-04-25 22:03 | 14.55599 | -18.28956 | 21691 ft | 435 kts | 98° |
| 2026-04-25 22:03 | 14.55157 | -18.25887 | 21249 ft | 431 kts | 98° |
| 2026-04-25 22:03 | 14.54717 | -18.22836 | 20885 ft | 427 kts | 98° |
| 2026-04-25 22:03 | 14.54283 | -18.19825 | 20501 ft | 424 kts | 98° |
| 2026-04-25 22:04 | 14.53848 | -18.16817 | 20180 ft | 423 kts | 98° |
| 2026-04-25 22:04 | 14.53415 | -18.13822 | 19882 ft | 421 kts | 98° |
| 2026-04-25 22:04 | 14.52984 | -18.10844 | 19624 ft | 418 kts | 98° |
| 2026-04-25 22:04 | 14.52556 | -18.07890 | 19237 ft | 415 kts | 98° |
| 2026-04-25 22:05 | 14.52130 | -18.04949 | 18835 ft | 413 kts | 98° |
| 2026-04-25 22:05 | 14.51706 | -18.02028 | 18402 ft | 411 kts | 99° |
| 2026-04-25 22:05 | 14.51283 | -17.99115 | 17929 ft | 410 kts | 99° |
| 2026-04-25 22:05 | 14.50861 | -17.96211 | 17472 ft | 407 kts | 99° |
| 2026-04-25 22:06 | 14.50442 | -17.93333 | 17025 ft | 405 kts | 99° |
| 2026-04-25 22:06 | 14.50031 | -17.90511 | 16599 ft | 402 kts | 99° |
| 2026-04-25 22:06 | 14.49617 | -17.87670 | 16163 ft | 399 kts | 99° |
| 2026-04-25 22:06 | 14.49201 | -17.84814 | 15727 ft | 396 kts | 99° |
| 2026-04-25 22:07 | 14.48797 | -17.82050 | 15313 ft | 393 kts | 99° |
| 2026-04-25 22:07 | 14.48523 | -17.80172 | 15035 ft | 392 kts | 99° |
| 2026-04-25 22:07 | 14.47987 | -17.76508 | 14477 ft | 388 kts | 99° |
| 2026-04-25 22:07 | 14.47586 | -17.73763 | 14052 ft | 386 kts | 100° |
| 2026-04-25 22:08 | 14.47186 | -17.71034 | 13616 ft | 384 kts | 100° |
| 2026-04-25 22:08 | 14.46788 | -17.68321 | 13152 ft | 381 kts | 100° |
| 2026-04-25 22:08 | 14.46393 | -17.65627 | 12716 ft | 378 kts | 100° |
| 2026-04-25 22:08 | 14.46002 | -17.62964 | 12295 ft | 374 kts | 101° |
| 2026-04-25 22:09 | 14.45613 | -17.60318 | 11880 ft | 371 kts | 100° |
| 2026-04-25 22:09 | 14.45228 | -17.57702 | 11471 ft | 367 kts | 101° |
| 2026-04-25 22:09 | 14.44847 | -17.55109 | 11064 ft | 364 kts | 101° |
| 2026-04-25 22:09 | 14.44469 | -17.52546 | 10768 ft | 357 kts | 101° |
| 2026-04-25 22:10 | 14.44102 | -17.50053 | 10613 ft | 346 kts | 101° |
| 2026-04-25 22:10 | 14.43747 | -17.47636 | 10446 ft | 335 kts | 101° |
| 2026-04-25 22:10 | 14.43402 | -17.45294 | 10304 ft | 325 kts | 101° |
| 2026-04-25 22:10 | 14.43068 | -17.43028 | 10165 ft | 314 kts | 101° |
| 2026-04-25 22:11 | 14.42745 | -17.40842 | 10037 ft | 303 kts | 101° |
| 2026-04-25 22:11 | 14.42432 | -17.38724 | 9779 ft | 297 kts | 101° |
| 2026-04-25 22:11 | 14.42120 | -17.36629 | 9443 ft | 293 kts | 101° |
| 2026-04-25 22:11 | 14.41813 | -17.34562 | 9118 ft | 290 kts | 100° |
| 2026-04-25 22:12 | 14.41510 | -17.32524 | 8782 ft | 286 kts | 100° |
| 2026-04-25 22:12 | 14.41210 | -17.30509 | 8456 ft | 282 kts | 100° |
| 2026-04-25 22:12 | 14.40915 | -17.28523 | 8142 ft | 278 kts | 99° |
| 2026-04-25 22:12 | 14.40718 | -17.27196 | 7946 ft | 276 kts | 99° |
| 2026-04-25 22:13 | 14.40337 | -17.24633 | 7530 ft | 270 kts | 98° |
| 2026-04-25 22:13 | 14.40054 | -17.22731 | 7226 ft | 267 kts | 98° |
| 2026-04-25 22:13 | 14.39772 | -17.20833 | 6939 ft | 270 kts | 98° |
| 2026-04-25 22:13 | 14.39484 | -17.18895 | 6648 ft | 276 kts | 97° |
| 2026-04-25 22:14 | 14.39195 | -17.16953 | 6452 ft | 270 kts | 97° |
| 2026-04-25 22:14 | 14.38913 | -17.15065 | 6251 ft | 262 kts | 97° |
| 2026-04-25 22:14 | 14.38638 | -17.13220 | 5838 ft | 263 kts | 96° |
| 2026-04-25 22:14 | 14.38360 | -17.11350 | 5415 ft | 263 kts | 95° |
| 2026-04-25 22:15 | 14.38442 | -17.09550 | 5190 ft | 243 kts | 66° |
| 2026-04-25 22:15 | 14.39346 | -17.08189 | 5010 ft | 225 kts | 32° |
| 2026-04-25 22:15 | 14.40760 | -17.07599 | 4822 ft | 223 kts | 9° |
| 2026-04-25 22:16 | 14.43941 | -17.07162 | 4282 ft | 232 kts | 4° |
| 2026-04-25 22:16 | 14.45536 | -17.07087 | 3998 ft | 226 kts | 0° |
| 2026-04-25 22:16 | 14.47078 | -17.07089 | 3725 ft | 219 kts | 360° |
| 2026-04-25 22:16 | 14.48586 | -17.07105 | 3438 ft | 216 kts | 360° |
| 2026-04-25 22:17 | 14.50074 | -17.07121 | 3166 ft | 211 kts | 0° |
| 2026-04-25 22:17 | 14.51514 | -17.07136 | 2904 ft | 204 kts | 0° |
| 2026-04-25 22:17 | 14.52911 | -17.07149 | 2646 ft | 197 kts | 1° |
| 2026-04-25 22:17 | 14.54253 | -17.07161 | 2392 ft | 188 kts | 0° |
| 2026-04-25 22:18 | 14.55531 | -17.07174 | 2169 ft | 179 kts | 1° |
| 2026-04-25 22:18 | 14.56753 | -17.07186 | 1947 ft | 173 kts | 1° |
| 2026-04-25 22:18 | 14.57941 | -17.07196 | 1720 ft | 170 kts | 0° |
| 2026-04-25 22:18 | 14.59103 | -17.07207 | 1559 ft | 163 kts | 0° |
| 2026-04-25 22:19 | 14.60195 | -17.07218 | 1320 ft | 151 kts | 0° |
| 2026-04-25 22:19 | 14.60891 | -17.07223 | 1178 ft | 151 kts | 358° |
| 2026-04-25 22:19 | 14.62247 | -17.07238 | 952 ft | 140 kts | 0° |
| 2026-04-25 22:19 | 14.63216 | -17.07245 | 766 ft | 139 kts | 359° |
| 2026-04-25 22:20 | 14.64204 | -17.07256 | 597 ft | 142 kts | 359° |
| 2026-04-25 22:20 | 14.65197 | -17.07263 | 369 ft | 142 kts | 358° |
| 2026-04-25 22:20 | 14.66169 | -17.07274 | 293 ft | 130 kts | 359° |
| 2026-04-25 22:20 | 14.66896 | -17.07281 | 306 ft | 64 kts | 359° |
| 2026-04-25 22:21 | 14.67069 | -17.07253 | 305 ft | 14 kts | 57° |
| 2026-04-25 22:21 | 14.67080 | -17.07156 | 305 ft | 14 kts | 94° |
| 2026-04-25 22:21 | 14.67080 | -17.07057 | 302 ft | 14 kts | 88° |
| 2026-04-25 22:21 | 14.67031 | -17.06980 | 300 ft | 15 kts | 167° |
| 2026-04-25 22:22 | 14.66924 | -17.06977 | 299 ft | 15 kts | 181° |
| 2026-04-25 22:22 | 14.66868 | -17.06906 | 300 ft | 15 kts | 88° |
| 2026-04-25 22:22 | 14.66868 | -17.06867 | 300 ft | 0 kts | 91° |